createdAt,value
2023-01-29T00:01:56.724Z,102958.88
2023-01-29T00:04:26.303Z,102950.00
2023-01-29T00:06:54.188Z,102944.59
2023-01-29T00:09:22.432Z,102943.75
2023-01-29T00:11:50.222Z,102935.56
2023-01-29T00:14:18.052Z,102921.63
2023-01-29T00:16:45.955Z,102918.16
2023-01-29T00:19:13.736Z,102914.97
2023-01-29T00:21:43.189Z,102912.97
2023-01-29T00:24:11.131Z,102905.16
2023-01-29T00:26:39.256Z,102903.94
2023-01-29T00:29:07.543Z,102899.69
2023-01-29T00:31:35.697Z,102901.97
2023-01-29T00:34:03.526Z,102903.03
2023-01-29T00:36:31.367Z,102908.72
2023-01-29T00:39:02.535Z,102911.75
2023-01-29T00:41:49.834Z,102910.22
2023-01-29T00:44:35.568Z,102910.06
2023-01-29T00:47:04.190Z,102909.25
2023-01-29T00:49:32.076Z,102901.59
2023-01-29T00:52:26.039Z,102898.56
2023-01-29T00:54:57.063Z,102897.69
2023-01-29T00:57:26.756Z,102899.53
2023-01-29T00:59:54.844Z,102894.13
2023-01-29T01:02:40.815Z,102893.78
2023-01-29T01:05:17.940Z,102895.00
2023-01-29T01:07:46.437Z,102881.84
2023-01-29T01:10:24.078Z,102884.81
2023-01-29T01:12:56.077Z,102891.38
2023-01-29T01:15:24.855Z,102884.81
2023-01-29T01:17:54.633Z,102881.78
2023-01-29T01:20:22.872Z,102879.88
2023-01-29T01:22:52.376Z,102873.75
2023-01-29T01:25:21.899Z,102871.91
2023-01-29T01:27:53.833Z,102878.16
2023-01-29T01:30:21.958Z,102879.31
2023-01-29T01:32:49.924Z,102879.72
2023-01-29T01:35:17.814Z,102892.81
2023-01-29T01:37:45.650Z,102897.34
2023-01-29T01:40:18.365Z,102895.13
2023-01-29T01:42:49.817Z,102897.91
2023-01-29T01:45:21.080Z,102898.75
2023-01-29T01:47:52.578Z,102895.38
2023-01-29T01:50:25.440Z,102890.81
2023-01-29T01:52:56.665Z,102889.69
2023-01-29T01:55:27.626Z,102897.78
2023-01-29T01:58:01.532Z,102890.09
2023-01-29T02:00:29.608Z,102897.34
2023-01-29T02:03:14.847Z,102890.03
2023-01-29T02:06:00.441Z,102887.97
2023-01-29T02:08:54.254Z,102890.94
2023-01-29T02:11:22.256Z,102885.91
2023-01-29T02:13:53.688Z,102894.06
2023-01-29T02:16:27.096Z,102893.72
2023-01-29T02:18:57.050Z,102891.03
2023-01-29T02:21:47.734Z,102896.06
2023-01-29T02:24:54.470Z,102883.00
2023-01-29T02:27:34.495Z,102888.03
2023-01-29T02:30:10.561Z,102891.47
2023-01-29T02:32:54.203Z,102884.47
2023-01-29T02:35:31.916Z,102887.13
2023-01-29T02:38:09.930Z,102893.72
2023-01-29T02:40:44.064Z,102913.06
2023-01-29T02:43:24.526Z,102903.91
2023-01-29T02:46:02.318Z,102910.41
2023-01-29T02:48:41.775Z,102905.44
2023-01-29T02:51:14.745Z,102911.19
2023-01-29T02:53:50.439Z,102913.09
2023-01-29T02:56:22.689Z,102911.28
2023-01-29T02:58:55.288Z,102918.22
2023-01-29T03:01:31.140Z,102908.56
2023-01-29T03:04:03.484Z,102904.72
2023-01-29T03:06:36.317Z,102903.66
2023-01-29T03:09:08.936Z,102902.16
2023-01-29T03:11:41.380Z,102897.47
2023-01-29T03:14:14.381Z,102895.56
2023-01-29T03:16:48.657Z,102895.56
2023-01-29T03:19:20.360Z,102883.22
2023-01-29T03:21:51.351Z,102882.06
2023-01-29T03:24:39.754Z,102874.25
2023-01-29T03:27:29.334Z,102870.44
2023-01-29T03:30:17.446Z,102874.47
2023-01-29T03:32:56.509Z,102866.38
2023-01-29T03:35:35.437Z,102866.44
2023-01-29T03:38:07.423Z,102854.78
2023-01-29T03:40:41.255Z,102844.63
2023-01-29T03:43:15.007Z,102839.19
2023-01-29T03:45:55.357Z,102847.72
2023-01-29T03:48:31.957Z,102838.84
2023-01-29T03:51:09.027Z,102845.78
2023-01-29T03:53:44.246Z,102841.75
2023-01-29T03:56:22.046Z,102841.75
2023-01-29T03:58:56.223Z,102839.81
2023-01-29T04:01:34.564Z,102842.94
2023-01-29T04:04:12.686Z,102826.75
2023-01-29T04:06:45.047Z,102829.03
2023-01-29T04:09:22.130Z,102830.56
2023-01-29T04:11:54.265Z,102819.78
2023-01-29T04:14:22.419Z,102821.72
2023-01-29T04:16:55.332Z,102818.25
2023-01-29T04:19:32.459Z,102816.69
2023-01-29T04:22:06.350Z,102819.72
2023-01-29T04:24:35.391Z,102814.69
2023-01-29T04:27:22.332Z,102821.22
2023-01-29T04:30:04.156Z,102814.91
2023-01-29T04:32:50.289Z,102812.91
2023-01-29T04:35:31.664Z,102814.47
2023-01-29T04:38:10.166Z,102814.09
2023-01-29T04:40:47.440Z,102807.94
2023-01-29T04:43:17.277Z,102813.75
2023-01-29T04:45:54.375Z,102807.16
2023-01-29T04:48:27.542Z,102802.06
2023-01-29T04:51:03.185Z,102810.16
2023-01-29T04:53:40.435Z,102797.44
2023-01-29T04:56:11.124Z,102796.28
2023-01-29T04:58:44.585Z,102790.13
2023-01-29T05:01:15.341Z,102789.34
2023-01-29T05:03:47.846Z,102788.56
2023-01-29T05:06:17.489Z,102779.69
2023-01-29T05:08:45.918Z,102782.75
2023-01-29T05:11:14.301Z,102780.81
2023-01-29T05:13:44.102Z,102780.34
2023-01-29T05:16:18.025Z,102783.38
2023-01-29T05:18:46.120Z,102783.72
2023-01-29T05:21:14.109Z,102786.38
2023-01-29T05:23:53.091Z,102778.19
2023-01-29T05:26:39.551Z,102784.34
2023-01-29T05:29:07.378Z,102797.50
2023-01-29T05:31:35.172Z,102804.47
2023-01-29T05:34:02.964Z,102794.81
2023-01-29T05:36:30.760Z,102800.53
2023-01-29T05:38:59.969Z,102788.16
2023-01-29T05:41:27.717Z,102789.25
2023-01-29T05:43:55.493Z,102796.22
2023-01-29T05:46:23.916Z,102791.25
2023-01-29T05:48:53.345Z,102790.47
2023-01-29T05:51:21.134Z,102798.94
2023-01-29T05:53:48.917Z,102799.63
2023-01-29T05:56:18.065Z,102795.00
2023-01-29T05:58:45.949Z,102782.31
2023-01-29T06:01:16.342Z,102775.28
2023-01-29T06:03:44.444Z,102765.28
2023-01-29T06:06:13.176Z,102778.81
2023-01-29T06:08:40.996Z,102771.44
2023-01-29T06:11:10.434Z,102764.13
2023-01-29T06:13:40.035Z,102761.53
2023-01-29T06:16:09.124Z,102755.34
2023-01-29T06:18:37.840Z,102755.69
2023-01-29T06:21:07.564Z,102752.22
2023-01-29T06:23:35.380Z,102750.94
2023-01-29T06:26:04.360Z,102752.50
2023-01-29T06:28:32.245Z,102747.19
2023-01-29T06:31:21.081Z,102742.84
2023-01-29T06:33:50.566Z,102742.50
2023-01-29T06:36:18.370Z,102745.13
2023-01-29T06:38:47.211Z,102750.59
2023-01-29T06:41:18.342Z,102743.72
2023-01-29T06:43:46.518Z,102744.16
2023-01-29T06:46:15.861Z,102747.63
2023-01-29T06:48:43.850Z,102737.25
2023-01-29T06:51:12.093Z,102755.69
2023-01-29T06:53:40.960Z,102746.84
2023-01-29T06:56:09.504Z,102736.47
2023-01-29T06:58:38.080Z,102740.38
2023-01-29T07:01:07.507Z,102747.28
2023-01-29T07:03:36.904Z,102749.59
2023-01-29T07:06:05.483Z,102739.25
2023-01-29T07:08:33.242Z,102735.00
2023-01-29T07:11:02.386Z,102738.03
2023-01-29T07:13:30.524Z,102750.41
2023-01-29T07:16:00.362Z,102742.31
2023-01-29T07:18:28.234Z,102744.19
2023-01-29T07:20:58.275Z,102741.06
2023-01-29T07:23:26.252Z,102744.16
2023-01-29T07:25:54.049Z,102749.44
2023-01-29T07:28:21.970Z,102745.13
2023-01-29T07:30:49.737Z,102737.81
2023-01-29T07:33:17.503Z,102735.53
2023-01-29T07:35:45.260Z,102737.53
2023-01-29T07:38:14.551Z,102749.09
2023-01-29T07:40:42.314Z,102740.16
2023-01-29T07:43:11.548Z,102742.13
2023-01-29T07:45:41.013Z,102725.97
2023-01-29T07:48:12.699Z,102731.00
2023-01-29T07:50:41.475Z,102725.69
2023-01-29T07:53:15.832Z,102725.31
2023-01-29T07:55:46.060Z,102714.53
2023-01-29T07:58:14.054Z,102712.56
2023-01-29T08:00:41.869Z,102700.63
2023-01-29T08:03:13.211Z,102704.13
2023-01-29T08:05:40.818Z,102709.94
2023-01-29T08:08:08.753Z,102697.94
2023-01-29T08:10:39.160Z,102703.31
2023-01-29T08:13:08.496Z,102699.16
2023-01-29T08:15:38.772Z,102698.44
2023-01-29T08:18:07.351Z,102689.97
2023-01-29T08:20:35.258Z,102697.72
2023-01-29T08:23:04.579Z,102698.16
2023-01-29T08:25:32.826Z,102698.63
2023-01-29T08:28:02.738Z,102694.81
2023-01-29T08:30:32.658Z,102698.75
2023-01-29T08:33:00.684Z,102701.47
2023-01-29T08:35:28.588Z,102691.91
2023-01-29T08:37:56.767Z,102682.31
2023-01-29T08:40:24.694Z,102683.13
2023-01-29T08:42:52.481Z,102673.91
2023-01-29T08:45:21.878Z,102662.78
2023-01-29T08:47:50.990Z,102666.66
2023-01-29T08:50:19.724Z,102667.88
2023-01-29T08:52:47.728Z,102666.38
2023-01-29T08:55:15.912Z,102662.91
2023-01-29T08:57:43.807Z,102660.19
2023-01-29T09:00:12.779Z,102669.09
2023-01-29T09:02:41.975Z,102661.81
2023-01-29T09:05:11.156Z,102662.22
2023-01-29T09:07:39.007Z,102661.94
2023-01-29T09:10:08.104Z,102664.69
2023-01-29T09:12:35.913Z,102671.22
2023-01-29T09:15:03.933Z,102668.94
2023-01-29T09:17:31.689Z,102673.28
2023-01-29T09:20:00.818Z,102665.56
2023-01-29T09:22:29.448Z,102663.66
2023-01-29T09:24:57.217Z,102665.63
2023-01-29T09:27:25.130Z,102662.63
2023-01-29T09:29:52.934Z,102678.47
2023-01-29T09:32:49.844Z,102664.19
2023-01-29T09:35:10.614Z,102671.91
2023-01-29T09:37:38.454Z,102675.03
2023-01-29T09:40:07.515Z,102669.63
2023-01-29T09:42:41.970Z,102672.75
2023-01-29T09:45:16.728Z,102656.91
2023-01-29T09:47:45.247Z,102667.78
2023-01-29T09:50:20.689Z,102661.66
2023-01-29T09:52:53.073Z,102672.56
2023-01-29T09:55:23.896Z,102663.25
2023-01-29T09:57:54.449Z,102664.47
2023-01-29T10:00:25.774Z,102667.66
2023-01-29T10:03:18.588Z,102661.50
2023-01-29T10:05:58.446Z,102668.88
2023-01-29T10:09:03.633Z,102669.34
2023-01-29T10:11:43.466Z,102663.56
2023-01-29T10:14:19.812Z,102664.31
2023-01-29T10:17:04.155Z,102657.75
2023-01-29T10:19:46.234Z,102651.22
2023-01-29T10:22:41.934Z,102654.34
2023-01-29T10:25:12.837Z,102645.84
2023-01-29T10:27:44.474Z,102647.38
2023-01-29T10:30:31.726Z,102641.97
2023-01-29T10:33:03.389Z,102637.38
2023-01-29T10:35:35.478Z,102634.94
2023-01-29T10:38:24.706Z,102623.03
2023-01-29T10:40:55.986Z,102617.66
2023-01-29T10:43:33.733Z,102613.06
2023-01-29T10:46:11.941Z,102609.94
2023-01-29T10:48:51.539Z,102608.47
2023-01-29T10:51:32.714Z,102604.25
2023-01-29T10:54:17.349Z,102598.53
2023-01-29T10:56:58.602Z,102602.03
2023-01-29T10:59:40.658Z,102594.69
2023-01-29T11:02:18.231Z,102587.00
2023-01-29T11:04:46.713Z,102588.59
2023-01-29T11:07:17.905Z,102586.34
2023-01-29T11:09:54.653Z,102585.16
2023-01-29T11:12:27.237Z,102590.28
2023-01-29T11:15:00.122Z,102569.50
2023-01-29T11:17:28.440Z,102581.00
2023-01-29T11:19:56.626Z,102567.50
2023-01-29T11:22:25.315Z,102570.66
2023-01-29T11:27:48.043Z,102558.28
2023-01-29T11:30:20.764Z,102559.88
2023-01-29T11:32:52.867Z,102569.50
2023-01-29T11:35:26.110Z,102562.16
2023-01-29T11:37:53.873Z,102547.88
2023-01-29T11:40:37.627Z,102547.88
2023-01-29T11:43:37.612Z,102549.84
2023-01-29T11:46:08.061Z,102545.66
2023-01-29T11:48:43.456Z,102542.16
2023-01-29T11:51:13.567Z,102538.25
2023-01-29T11:53:44.493Z,102538.25
2023-01-29T11:56:23.434Z,102534.03
2023-01-29T11:58:55.462Z,102530.19
2023-01-29T12:01:33.240Z,102524.75
2023-01-29T12:04:02.055Z,102525.50
2023-01-29T12:06:35.231Z,102519.31
2023-01-29T12:09:10.697Z,102514.28
2023-01-29T12:11:38.556Z,102519.34
2023-01-29T12:14:25.820Z,102513.94
2023-01-29T12:16:57.662Z,102501.19
2023-01-29T12:19:32.378Z,102491.53
2023-01-29T12:22:05.479Z,102492.25
2023-01-29T12:24:36.611Z,102473.66
2023-01-29T12:27:13.923Z,102479.13
2023-01-29T12:29:47.732Z,102471.78
2023-01-29T12:32:27.599Z,102463.28
2023-01-29T12:35:02.840Z,102465.63
2023-01-29T12:37:46.169Z,102464.50
2023-01-29T12:40:16.366Z,102453.28
2023-01-29T12:42:49.023Z,102455.63
2023-01-29T12:45:21.892Z,102444.47
2023-01-29T12:47:52.939Z,102437.56
2023-01-29T12:50:25.100Z,102437.56
2023-01-29T12:52:57.347Z,102426.72
2023-01-29T12:55:29.025Z,102418.97
2023-01-29T12:57:59.573Z,102420.91
2023-01-29T13:00:33.212Z,102401.94
2023-01-29T13:03:08.085Z,102382.63
2023-01-29T13:05:44.194Z,102383.81
2023-01-29T13:08:18.586Z,102388.47
2023-01-29T13:10:50.524Z,102378.00
2023-01-29T13:13:27.631Z,102362.19
2023-01-29T13:15:59.994Z,102359.50
2023-01-29T13:18:44.899Z,102346.38
2023-01-29T13:21:16.317Z,102327.09
2023-01-29T13:23:47.995Z,102329.41
2023-01-29T13:26:19.750Z,102323.66
2023-01-29T13:28:48.443Z,102308.63
2023-01-29T13:31:28.298Z,102311.72
2023-01-29T13:34:03.697Z,102314.44
2023-01-29T13:36:32.721Z,102308.25
2023-01-29T13:39:04.444Z,102300.50
2023-01-29T13:41:35.645Z,102300.94
2023-01-29T13:44:04.226Z,102298.25
2023-01-29T13:46:33.767Z,102299.06
2023-01-29T13:49:04.940Z,102297.16
2023-01-29T13:51:37.373Z,102310.69
2023-01-29T13:54:09.759Z,102296.41
2023-01-29T13:56:48.970Z,102299.50
2023-01-29T13:59:25.721Z,102292.91
2023-01-29T14:02:21.808Z,102287.53
2023-01-29T14:04:49.676Z,102282.91
2023-01-29T14:07:41.121Z,102291.78
2023-01-29T14:10:18.155Z,102281.75
2023-01-29T14:12:51.847Z,102292.19
2023-01-29T14:15:23.346Z,102283.28
2023-01-29T14:18:15.776Z,102279.06
2023-01-29T14:20:54.085Z,102272.09
2023-01-29T14:23:29.951Z,102270.56
2023-01-29T14:25:59.747Z,102271.38
2023-01-29T14:28:30.651Z,102277.53
2023-01-29T14:30:58.888Z,102267.50
2023-01-29T14:33:34.213Z,102271.75
2023-01-29T14:36:06.457Z,102260.16
2023-01-29T14:38:35.318Z,102254.38
2023-01-29T14:41:13.826Z,102260.16
2023-01-29T14:43:41.641Z,102251.69
2023-01-29T14:46:43.442Z,102250.09
2023-01-29T14:49:12.834Z,102249.31
2023-01-29T14:51:45.371Z,102255.91
2023-01-29T14:54:24.147Z,102246.66
2023-01-29T14:56:59.489Z,102239.28
2023-01-29T14:59:33.433Z,102256.69
2023-01-29T15:02:06.266Z,102238.91
2023-01-29T15:04:45.302Z,102238.13
2023-01-29T15:07:24.227Z,102221.13
2023-01-29T15:10:07.910Z,102225.78
2023-01-29T15:12:49.467Z,102225.00
2023-01-29T15:15:22.631Z,102211.09
2023-01-29T15:17:58.237Z,102216.50
2023-01-29T15:20:33.269Z,102206.44
2023-01-29T15:23:03.133Z,102226.94
2023-01-29T15:25:36.927Z,102217.28
2023-01-29T15:28:10.166Z,102214.56
2023-01-29T15:30:38.984Z,102219.97
2023-01-29T15:33:10.600Z,102210.69
2023-01-29T15:35:41.607Z,102208.00
2023-01-29T15:38:17.553Z,102212.22
2023-01-29T15:40:53.772Z,102194.06
2023-01-29T15:43:24.047Z,102186.72
2023-01-29T15:45:53.069Z,102192.91
2023-01-29T15:48:24.555Z,102182.84
2023-01-29T15:50:55.695Z,102187.09
2023-01-29T15:53:29.904Z,102179.38
2023-01-29T15:56:00.020Z,102182.47
2023-01-29T15:58:31.800Z,102177.81
2023-01-29T16:01:02.337Z,102177.81
2023-01-29T16:03:34.306Z,102182.44
2023-01-29T16:06:03.839Z,102191.69
2023-01-29T16:08:31.759Z,102182.03
2023-01-29T16:11:01.434Z,102182.41
2023-01-29T16:13:32.666Z,102190.13
2023-01-29T16:16:02.007Z,102189.38
2023-01-29T16:18:34.538Z,102188.56
2023-01-29T16:21:09.012Z,102184.66
2023-01-29T16:23:45.162Z,102195.81
2023-01-29T16:26:17.832Z,102190.78
2023-01-29T16:28:47.179Z,102208.94
2023-01-29T16:31:23.295Z,102192.69
2023-01-29T16:33:51.217Z,102197.31
2023-01-29T16:36:23.874Z,102180.75
2023-01-29T16:38:55.689Z,102181.09
2023-01-29T16:41:32.013Z,102171.84
2023-01-29T16:44:02.803Z,102164.47
2023-01-29T16:46:36.335Z,102159.44
2023-01-29T16:49:26.017Z,102162.84
2023-01-29T16:51:56.412Z,102158.22
2023-01-29T16:54:27.684Z,102167.06
2023-01-29T16:57:00.105Z,102157.78
2023-01-29T16:59:34.834Z,102158.19
2023-01-29T17:02:03.523Z,102151.56
2023-01-29T17:04:31.412Z,102155.03
2023-01-29T17:07:03.456Z,102158.06
2023-01-29T17:09:34.959Z,102154.19
2023-01-29T17:12:06.085Z,102155.31
2023-01-29T17:14:35.931Z,102153.41
2023-01-29T17:17:06.105Z,102155.34
2023-01-29T17:19:34.101Z,102133.72
2023-01-29T17:22:07.693Z,102148.78
2023-01-29T17:24:35.617Z,102141.81
2023-01-29T17:27:03.436Z,102138.34
2023-01-29T17:29:32.657Z,102134.88
2023-01-29T17:32:00.557Z,102134.88
2023-01-29T17:34:28.442Z,102139.16
2023-01-29T17:36:57.217Z,102139.91
2023-01-29T17:39:26.655Z,102134.53
2023-01-29T17:41:56.430Z,102136.09
2023-01-29T17:44:26.072Z,102130.69
2023-01-29T17:46:53.955Z,102121.03
2023-01-29T17:49:24.388Z,102112.91
2023-01-29T17:51:52.993Z,102105.59
2023-01-29T17:54:21.084Z,102098.66
2023-01-29T17:56:51.236Z,102099.06
2023-01-29T17:59:20.920Z,102094.06
2023-01-29T18:01:49.345Z,102089.03
2023-01-29T18:04:17.517Z,102088.66
2023-01-29T18:06:48.569Z,102089.41
2023-01-29T18:09:18.806Z,102085.97
2023-01-29T18:11:46.658Z,102075.91
2023-01-29T18:14:15.939Z,102079.41
2023-01-29T18:16:44.883Z,102072.50
2023-01-29T18:19:15.827Z,102064.78
2023-01-29T18:21:43.624Z,102069.78
2023-01-29T18:24:11.417Z,102063.63
2023-01-29T18:26:39.245Z,102063.63
2023-01-29T18:29:07.100Z,102072.50
2023-01-29T18:31:36.361Z,102057.06
2023-01-29T18:34:04.205Z,102043.94
2023-01-29T18:36:32.032Z,102035.47
2023-01-29T18:38:59.873Z,102040.50
2023-01-29T18:41:27.621Z,102038.56
2023-01-29T18:43:55.381Z,102022.75
2023-01-29T18:46:24.311Z,102020.81
2023-01-29T18:48:53.570Z,102008.88
2023-01-29T18:51:21.392Z,102006.56
2023-01-29T18:53:51.745Z,101995.00
2023-01-29T18:56:20.329Z,102000.78
2023-01-29T18:58:52.439Z,102011.19
2023-01-29T19:01:20.954Z,101992.28
2023-01-29T19:03:48.822Z,101998.06
2023-01-29T19:06:17.926Z,101979.94
2023-01-29T19:08:47.319Z,101979.94
2023-01-29T19:11:15.204Z,101976.84
2023-01-29T19:13:43.100Z,101968.72
2023-01-29T19:16:12.645Z,101947.13
2023-01-29T19:18:40.757Z,101958.69
2023-01-29T19:21:10.743Z,101940.59
2023-01-29T19:23:40.696Z,101952.91
2023-01-29T19:26:08.949Z,101960.25
2023-01-29T19:28:37.135Z,101959.50
2023-01-29T19:31:05.256Z,101957.94
2023-01-29T19:33:33.134Z,101950.25
2023-01-29T19:36:01.132Z,101946.75
2023-01-29T19:38:33.287Z,101943.69
2023-01-29T19:41:02.407Z,101953.69
2023-01-29T19:43:31.490Z,101965.31
2023-01-29T19:46:00.346Z,101940.59
2023-01-29T19:48:28.351Z,101939.81
2023-01-29T19:50:57.279Z,101948.69
2023-01-29T19:53:25.617Z,101944.44
2023-01-29T19:56:00.740Z,101926.31
2023-01-29T19:58:30.935Z,101923.63
2023-01-29T20:00:59.814Z,101929.03
2023-01-29T20:03:28.904Z,101937.50
2023-01-29T20:05:57.560Z,101937.88
2023-01-29T20:08:25.435Z,101934.44
2023-01-29T20:10:53.274Z,101934.06
2023-01-29T20:13:21.311Z,101930.59
2023-01-29T20:15:51.768Z,101924.38
2023-01-29T20:18:20.352Z,101916.28
2023-01-29T20:20:49.882Z,101932.88
2023-01-29T20:23:35.238Z,101925.94
2023-01-29T20:26:06.774Z,101930.97
2023-01-29T20:28:36.660Z,101913.56
2023-01-29T20:31:07.916Z,101923.63
2023-01-29T20:33:38.268Z,101912.81
2023-01-29T20:36:09.996Z,101903.53
2023-01-29T20:38:38.252Z,101890.03
2023-01-29T20:41:07.834Z,101910.50
2023-01-29T20:43:36.217Z,101927.09
2023-01-29T20:46:05.933Z,101925.19
2023-01-29T20:48:34.321Z,101917.84
2023-01-29T20:51:10.365Z,101910.88
2023-01-29T20:53:38.656Z,101903.94
2023-01-29T20:56:07.627Z,101917.06
2023-01-29T20:58:35.579Z,101914.75
2023-01-29T21:01:10.396Z,101906.66
2023-01-29T21:03:38.759Z,101900.06
2023-01-29T21:06:07.393Z,101898.53
2023-01-29T21:08:35.370Z,101895.03
2023-01-29T21:11:03.198Z,101900.84
2023-01-29T21:13:31.060Z,101896.22
2023-01-29T21:15:58.965Z,101902.00
2023-01-29T21:18:28.165Z,101909.34
2023-01-29T21:20:56.129Z,101913.56
2023-01-29T21:23:23.991Z,101898.91
2023-01-29T21:25:51.799Z,101894.66
2023-01-29T21:28:19.597Z,101901.59
2023-01-29T21:30:47.917Z,101919.75
2023-01-29T21:33:15.790Z,101901.59
2023-01-29T21:35:44.957Z,101894.63
2023-01-29T21:38:12.741Z,101896.16
2023-01-29T21:40:40.555Z,101896.56
2023-01-29T21:43:13.416Z,101897.31
2023-01-29T21:45:41.703Z,101890.75
2023-01-29T21:48:12.390Z,101876.47
2023-01-29T21:50:40.277Z,101857.13
2023-01-29T21:53:09.432Z,101837.78
2023-01-29T21:55:37.220Z,101837.38
2023-01-29T21:58:05.002Z,101811.47
2023-01-29T22:00:32.827Z,101810.34
2023-01-29T22:03:00.729Z,101781.34
2023-01-29T22:05:29.218Z,101781.31
2023-01-29T22:07:57.229Z,101781.31
2023-01-29T22:10:27.437Z,101769.72
2023-01-29T22:12:55.453Z,101769.75
2023-01-29T22:15:24.245Z,101750.41
2023-01-29T22:17:52.261Z,101791.38
2023-01-29T22:20:20.776Z,101789.81
2023-01-29T22:22:48.645Z,101783.63
2023-01-29T22:25:19.918Z,101770.88
2023-01-29T22:27:48.956Z,101754.63
2023-01-29T22:30:17.515Z,101756.91
2023-01-29T22:32:45.433Z,101760.00
2023-01-29T22:35:13.251Z,101765.78
2023-01-29T22:37:41.012Z,101766.19
2023-01-29T22:40:10.113Z,101754.97
2023-01-29T22:42:37.844Z,101747.22
2023-01-29T22:45:08.904Z,101747.19
2023-01-29T22:47:36.668Z,101739.44
2023-01-29T22:50:05.150Z,101730.94
2023-01-29T22:52:38.577Z,101728.19
2023-01-29T22:55:09.422Z,101719.69
2023-01-29T22:57:37.700Z,101711.53
2023-01-29T23:00:11.462Z,101711.50
2023-01-29T23:02:39.313Z,101720.00
2023-01-29T23:05:08.094Z,101733.13
2023-01-29T23:07:35.851Z,101734.25
2023-01-29T23:10:03.672Z,101729.22
2023-01-29T23:12:31.481Z,101716.44
2023-01-29T23:14:59.321Z,101723.75
2023-01-29T23:17:28.484Z,101714.41
2023-01-29T23:19:56.311Z,101698.16
2023-01-29T23:22:24.105Z,101696.59
2023-01-29T23:24:52.007Z,101705.44
2023-01-29T23:27:18.847Z,101703.50
2023-01-29T23:29:48.668Z,101701.94
2023-01-29T23:32:18.192Z,101681.41
2023-01-29T23:34:47.488Z,101667.41
2023-01-29T23:37:15.374Z,101655.00
2023-01-29T23:39:43.198Z,101654.56
2023-01-29T23:42:11.008Z,101664.25
2023-01-29T23:44:40.191Z,101650.25
2023-01-29T23:47:08.223Z,101634.31
2023-01-29T23:49:36.346Z,101648.22
2023-01-29T23:52:05.730Z,101655.94
2023-01-29T23:54:33.539Z,101645.06
2023-01-29T23:57:01.323Z,101642.72
2023-01-29T23:59:29.231Z,101645.78
